You are not logged in, Click here to log in
ICAO: VABB Country: 印度共和國馬哈拉施特拉邦首府孟買
Latitude: 19.0902 Longitude: 72.8687
Total Arrivals: 18 Total Departures: 20
Latest Arrival: 9W69 (VTBS-VABB)Arthur. Kung Latest Departure: EK507 (VABB-OMDB)Arthur. Kung
Scenery:
METAR : VABB 241100Z 27015KT 6000 FEW020 32/25 Q1007 NOSIG

賈特拉帕蒂·希瓦吉國際機場BOM